Crocus Hill, Anguilla
Current Conditions -  °F | °C
As of 3:00 AM on Thursday 23 Oct 2014 (Local Time) from TNCM Reporting Station
Rain Showers Rain Showers  
Wind Chill: 82°   Ceiling: Unl
Heat Index: 89°   Visibility: 6mi
Dew Point: 75°   Wind: 8mph
Humidity: 79%   Direction: 80°E
Pressure: 29.88"   Gusts: NA
Location:  18.25°N, 63.08°W
Report Text: TNCM 230700Z 08007KT 050V120 9999 -SHRA SCT018 28/24 Q1012 A2991
Loading
Personal Weather Stations






























Interactive Weather Map
Tropical Storm Tracking
New forecast layout! Learn more

10-Day Weather Forecast

Advertisements
Track Severe Weather on mobile